Atlantic Elm — 9HA3054 — position and weather

sailwx.info

Track history (hours):
 
Tides and Currents Weather Stations Pressure Air Temp Water Temp Dewpoint Dewpoint Depression Visibility Wind Speed Wind Dir Waves Ship Positions

Atlantic Elm

Last reported at 2014-Oct-08 20:09 UTC. Time now 2014-Oct-22 00:06 UTC.
Position N 35°60' W 005°28'.
Warning: this ship's position is 13 days out of date.

Length 190 m; draft 11.4 m.

Type: Cargo ship. MMSI: 229081000.

Date/timePositionNaut miles runAvg speedWind from/ knotsBaromVisibWave heightAir tempDewpointWater temp
2014-Oct-08 20:09N 35°60' W 005°28'5 8.2
2014-Oct-08 19:32N 36°01' W 005°23'16511.0
2014-Oct-08 04:33N 36°19' W 001°59'1511.1
2014-Oct-08 03:10N 36°25' W 001°41'811.8
2014-Oct-08 02:32N 36°27' W 001°32'1311.9
2014-Oct-08 01:29N 36°32' W 001°18'1112.0
2014-Oct-08 00:32N 36°36' W 001°05'1111.5
2014-Oct-07 23:33N 36°39' W 000°51'1211.5
2014-Oct-07 22:33N 36°43' W 000°38'1111.5
2014-Oct-07 21:34N 36°47' W 000°25'1111.4
2014-Oct-07 20:33N 36°51' W 000°11'1111.4
2014-Oct-07 19:33N 36°55' E 000°02'1111.5
2014-Oct-07 18:33N 36°59' E 000°16'1111.2
2014-Oct-07 17:33N 37°03' E 000°29'1211.2
2014-Oct-07 16:32N 37°07' E 000°42'1211.3
2014-Oct-07 15:25N 37°12' E 000°57'2210.8
2014-Oct-07 13:21N 37°20' E 001°23'1910.6
2014-Oct-07 11:33N 37°26' E 001°46'1310.8
2014-Oct-07 10:18N 37°31' E 002°02'5611.3
2014-Oct-07 05:20N 37°35' E 003°12'2011.5
2014-Oct-07 03:33N 37°36' E 003°38'1211.4
2014-Oct-07 02:32N 37°37' E 003°52'1111.4
2014-Oct-07 01:33N 37°38' E 004°07'1111.1
2014-Oct-07 00:33N 37°39' E 004°21'1110.8
2014-Oct-06 23:33N 37°39' E 004°34'1611.1
2014-Oct-06 22:06N 37°40' E 004°55'911.2
2014-Oct-06 21:17N 37°41' E 005°06'1911.2
2014-Oct-06 19:32N 37°42' E 005°31'1211.4
2014-Oct-06 18:31N 37°43' E 005°46'1211.6
2014-Oct-06 17:28N 37°44' E 006°01'36411.2
2014-Oct-05 09:04N 36°48' E 013°32'811.6
2014-Oct-05 08:25N 36°45' E 013°41'1011.4
2014-Oct-05 07:33N 36°41' E 013°52'1111.4
2014-Oct-05 06:33N 36°36' E 014°05'1211.5
2014-Oct-05 05:33N 36°32' E 014°19'1111.5
2014-Oct-05 04:33N 36°28' E 014°32'46310.5
2014-Oct-03 08:27N 37°29' E 024°07'1111.9
2014-Oct-03 07:32N 37°39' E 024°12'3911.7
2014-Oct-03 04:10N 38°10' E 024°43'24511.3
2014-Oct-02 06:27N 40°54' E 028°40'1111.8
2014-Oct-02 05:33N 40°56' E 028°54'1511.5
2014-Oct-02 04:16N 41°08' E 029°04'28 1.6
2014-Oct-01 11:21N 41°28' E 029°29'24011.5
2014-Sep-30 14:33N 43°17' E 034°19'1312.4
2014-Sep-30 13:30N 43°23' E 034°34'1213.1
2014-Sep-30 12:33N 43°29' E 034°50'1111.2
2014-Sep-30 11:33N 43°34' E 035°03'11411.4
2014-Sep-30 01:31N 44°26' E 037°25'1313.1
2014-Sep-30 00:33N 44°31' E 037°41'1110.8
2014-Sep-29 23:33N 44°35' E 037°55'0 0.0
2014-Sep-29 22:31N 44°35' E 037°55'0 0.0
2014-Sep-29 21:31N 44°35' E 037°55'0 0.0
2014-Sep-29 20:31N 44°35' E 037°55'0 0.0
2014-Sep-29 19:31N 44°35' E 037°55'0 0.0
2014-Sep-29 18:28N 44°35' E 037°55'0 0.0
2014-Sep-29 17:31N 44°35' E 037°55'0 0.0
2014-Sep-29 16:31N 44°35' E 037°55'0 0.0
2014-Sep-29 15:31N 44°35' E 037°55'0 0.0
2014-Sep-29 14:31N 44°35' E 037°55'0 0.2
2014-Sep-29 13:31N 44°35' E 037°55'0 0.1
2014-Sep-29 12:31N 44°35' E 037°55'0 0.0
2014-Sep-29 11:31N 44°35' E 037°55'0 0.0
2014-Sep-29 10:31N 44°35' E 037°55'0 0.0
2014-Sep-29 09:25N 44°35' E 037°55'0 0.0
2014-Sep-29 08:31N 44°35' E 037°55'0 0.0
2014-Sep-29 07:31N 44°35' E 037°55'0 0.0
2014-Sep-29 06:28N 44°35' E 037°55'0 0.0
2014-Sep-29 05:31N 44°35' E 037°55'0 0.1
2014-Sep-29 04:33N 44°35' E 037°55'4 3.8
2014-Sep-29 03:33N 44°38' E 037°52'7 6.5
2014-Sep-29 02:33N 44°44' E 037°48'0 0.1
2014-Sep-29 01:32N 44°44' E 037°48'0 0.0
2014-Sep-29 00:32N 44°44' E 037°48'0 0.0
2014-Sep-28 23:32N 44°44' E 037°48'0 0.0
2014-Sep-28 22:32N 44°44' E 037°48'0 0.0
2014-Sep-28 21:32N 44°44' E 037°48'0 0.0
2014-Sep-28 20:32N 44°44' E 037°48'  
Track history (hours):
 
Tides and Currents Weather Stations Pressure Air Temp Water Temp Dewpoint Dewpoint Depression Visibility Wind Speed Wind Dir Waves Ship Positions

Atlantic Elm

Last reported at 2014-Oct-08 20:09 UTC. Time now 2014-Oct-22 00:06 UTC.
Position N 35°60' W 005°28'.
Warning: this ship's position is 13 days out of date.

Length 190 m; draft 11.4 m.

Type: Cargo ship. MMSI: 229081000.

Date/timePositionNaut miles runAvg speedWind from/ knotsBaromVisibWave heightAir tempDewpointWater temp
2014-Oct-08 20:09N 35°60' W 005°28'5 8.2
2014-Oct-08 19:32N 36°01' W 005°23'16511.0
2014-Oct-08 04:33N 36°19' W 001°59'1511.1
2014-Oct-08 03:10N 36°25' W 001°41'811.8
2014-Oct-08 02:32N 36°27' W 001°32'1311.9
2014-Oct-08 01:29N 36°32' W 001°18'1112.0
2014-Oct-08 00:32N 36°36' W 001°05'1111.5
2014-Oct-07 23:33N 36°39' W 000°51'1211.5
2014-Oct-07 22:33N 36°43' W 000°38'1111.5
2014-Oct-07 21:34N 36°47' W 000°25'1111.4
2014-Oct-07 20:33N 36°51' W 000°11'1111.4
2014-Oct-07 19:33N 36°55' E 000°02'1111.5
2014-Oct-07 18:33N 36°59' E 000°16'1111.2
2014-Oct-07 17:33N 37°03' E 000°29'1211.2
2014-Oct-07 16:32N 37°07' E 000°42'1211.3
2014-Oct-07 15:25N 37°12' E 000°57'2210.8
2014-Oct-07 13:21N 37°20' E 001°23'1910.6
2014-Oct-07 11:33N 37°26' E 001°46'1310.8
2014-Oct-07 10:18N 37°31' E 002°02'5611.3
2014-Oct-07 05:20N 37°35' E 003°12'2011.5
2014-Oct-07 03:33N 37°36' E 003°38'1211.4
2014-Oct-07 02:32N 37°37' E 003°52'1111.4
2014-Oct-07 01:33N 37°38' E 004°07'1111.1
2014-Oct-07 00:33N 37°39' E 004°21'1110.8
2014-Oct-06 23:33N 37°39' E 004°34'1611.1
2014-Oct-06 22:06N 37°40' E 004°55'911.2
2014-Oct-06 21:17N 37°41' E 005°06'1911.2
2014-Oct-06 19:32N 37°42' E 005°31'1211.4
2014-Oct-06 18:31N 37°43' E 005°46'1211.6
2014-Oct-06 17:28N 37°44' E 006°01'36411.2
2014-Oct-05 09:04N 36°48' E 013°32'811.6
2014-Oct-05 08:25N 36°45' E 013°41'1011.4
2014-Oct-05 07:33N 36°41' E 013°52'1111.4
2014-Oct-05 06:33N 36°36' E 014°05'1211.5
2014-Oct-05 05:33N 36°32' E 014°19'1111.5
2014-Oct-05 04:33N 36°28' E 014°32'46310.5
2014-Oct-03 08:27N 37°29' E 024°07'1111.9
2014-Oct-03 07:32N 37°39' E 024°12'3911.7
2014-Oct-03 04:10N 38°10' E 024°43'24511.3
2014-Oct-02 06:27N 40°54' E 028°40'1111.8
2014-Oct-02 05:33N 40°56' E 028°54'1511.5
2014-Oct-02 04:16N 41°08' E 029°04'28 1.6
2014-Oct-01 11:21N 41°28' E 029°29'24011.5
2014-Sep-30 14:33N 43°17' E 034°19'1312.4
2014-Sep-30 13:30N 43°23' E 034°34'1213.1
2014-Sep-30 12:33N 43°29' E 034°50'1111.2
2014-Sep-30 11:33N 43°34' E 035°03'11411.4
2014-Sep-30 01:31N 44°26' E 037°25'1313.1
2014-Sep-30 00:33N 44°31' E 037°41'1110.8
2014-Sep-29 23:33N 44°35' E 037°55'0 0.0
2014-Sep-29 22:31N 44°35' E 037°55'0 0.0
2014-Sep-29 21:31N 44°35' E 037°55'0 0.0
2014-Sep-29 20:31N 44°35' E 037°55'0 0.0
2014-Sep-29 19:31N 44°35' E 037°55'0 0.0
2014-Sep-29 18:28N 44°35' E 037°55'0 0.0
2014-Sep-29 17:31N 44°35' E 037°55'0 0.0
2014-Sep-29 16:31N 44°35' E 037°55'0 0.0
2014-Sep-29 15:31N 44°35' E 037°55'0 0.0
2014-Sep-29 14:31N 44°35' E 037°55'0 0.2
2014-Sep-29 13:31N 44°35' E 037°55'0 0.1
2014-Sep-29 12:31N 44°35' E 037°55'0 0.0
2014-Sep-29 11:31N 44°35' E 037°55'0 0.0
2014-Sep-29 10:31N 44°35' E 037°55'0 0.0
2014-Sep-29 09:25N 44°35' E 037°55'0 0.0
2014-Sep-29 08:31N 44°35' E 037°55'0 0.0
2014-Sep-29 07:31N 44°35' E 037°55'0 0.0
2014-Sep-29 06:28N 44°35' E 037°55'0 0.0
2014-Sep-29 05:31N 44°35' E 037°55'0 0.1
2014-Sep-29 04:33N 44°35' E 037°55'4 3.8
2014-Sep-29 03:33N 44°38' E 037°52'7 6.5
2014-Sep-29 02:33N 44°44' E 037°48'0 0.1
2014-Sep-29 01:32N 44°44' E 037°48'0 0.0
2014-Sep-29 00:32N 44°44' E 037°48'0 0.0
2014-Sep-28 23:32N 44°44' E 037°48'0 0.0
2014-Sep-28 22:32N 44°44' E 037°48'0 0.0
2014-Sep-28 21:32N 44°44' E 037°48'0 0.0
2014-Sep-28 20:32N 44°44' E 037°48'  

Dump ship's entire track history